LIRN/NAP METAR and TAF weather

Enter ICAO airport designator
Station Type Date Time Source
LIRN METAR 2022/01/28 00:20 UTC NOAA

LIRN 280020Z VRB01KT CAVOK 03/01 Q1027 NOSIG


Station Type Date Time Source
LIRN Decoded METAR 2022/01/28 00:20 UTC NOAA

Napoli / Capodichino, Italy (LIRN) 40-51N 014-18E 72M
Jan 27, 2022 - 07:20 PM EST / 2022.01.28 0020 UTC
Wind: Variable at 1 MPH (1 KT):0
Visibility: greater than 7 mile(s):0
Temperature: 37 F (3 C)
Dew Point: 33 F (1 C)
Relative Humidity: 86%
Pressure (altimeter): 30.33 in. Hg (1027 hPa)
ob: LIRN 280020Z VRB01KT CAVOK 03/01 Q1027 NOSIG
cycle: 0

Station Type Date Time Source
LIRN TAF 2022/01/27 18:22 UTC NOAA

TAF LIRN 271700Z 2718/2818 VRB05KT CAVOK

Example: see airport list